»·PEaware :: RCH13 KVBG-KLSV

RCH13 :: KVBG-KLSV

FLIGHT INFORMATION

Flight Status: Arrived
Operator:
US Air Force AMC
More flights by this operator :: More flights under this callsign
Pilot: Damien O. (2415)
Aircraft: LOCKHEED C-5 GALAXY
(C5)
More flights by this aircraft type
Origin: KVBG Vandenberg AFB
United States
Destination: KLSV Nellis AFB
United States
More flights between these airports :: More routes between these airports
Route: VBG2 MQO NID BLD
File this flight plan on PilotEdge
Remarks: full home cockpit running prepar3d / V /
Altitude:
(Current/Filed)
410ft
Speed:
(Current/Filed)
350kts
Departed: 06-Sep-13 04:40 PM
Arrived: 06-Sep-13 05:32 PM
Distance/Time
Traveled:
285nm/0:52
Distance/Time
To Go:
Arrived

Flight Plot

Page will automatically refresh every two minutes.


Map Options




Map Legend


Flown Route
Filed Route
Departure Airport
Arrival Airport
Navaid (VOR, NDB)
Fix

Horizontal Profiles

Position Reports

Time Latitude Longitude Heading Altitude Ground
Speed
06-Sep-13 16:25 34.732745 -120.566668 218 386ft 0kts
06-Sep-13 16:26 34.732745 -120.566668 218 386ft 0kts
06-Sep-13 16:27 34.732745 -120.566668 218 386ft 0kts
06-Sep-13 16:28 34.732745 -120.566668 218 386ft 0kts
06-Sep-13 16:29 34.732745 -120.566668 218 386ft 0kts
06-Sep-13 16:30 34.732745 -120.566668 218 386ft 0kts
06-Sep-13 16:31 34.732745 -120.566668 218 386ft 0kts
06-Sep-13 16:32 34.731896 -120.567478 218 386ft 15kts
06-Sep-13 16:33 34.729207 -120.568369 139 386ft 13kts
06-Sep-13 16:34 34.724604 -120.565313 207 386ft 13kts
06-Sep-13 16:35 34.723275 -120.566605 224 386ft 0kts
06-Sep-13 16:36 34.723212 -120.566681 224 386ft 3kts
06-Sep-13 16:37 34.723929 -120.568638 315 386ft 19kts
06-Sep-13 16:38 34.750163 -120.598692 312 562ft 219kts
06-Sep-13 16:39 34.798259 -120.653363 312 3312ft 235kts
06-Sep-13 16:40 34.864106 -120.677441 352 6354ft 269kts
06-Sep-13 16:41 34.939817 -120.682854 349 9964ft 286kts
06-Sep-13 16:42 35.026349 -120.696719 348 14040ft 340kts
06-Sep-13 16:43 35.115886 -120.718239 343 17705ft 383kts
06-Sep-13 16:44 35.225586 -120.750186 343 21747ft 423kts
06-Sep-13 16:45 35.339631 -120.710621 53 25601ft 476kts
06-Sep-13 16:46 35.374470 -120.552323 92 29077ft 507kts
06-Sep-13 16:47 35.364220 -120.378892 93 32583ft 508kts
06-Sep-13 16:48 35.364136 -120.202557 87 34733ft 524kts
06-Sep-13 16:49 35.376780 -120.023298 84 36469ft 531kts
06-Sep-13 16:50 35.396746 -119.842947 81 37870ft 534kts
06-Sep-13 16:51 35.420100 -119.662653 80 39266ft 534kts
06-Sep-13 16:52 35.444662 -119.484100 80 40657ft 530kts
06-Sep-13 16:53 35.469748 -119.305129 80 41452ft 537kts
06-Sep-13 16:54 35.495476 -119.121998 80 41464ft 548kts
06-Sep-13 16:55 35.521410 -118.936440 80 41405ft 553kts
06-Sep-13 16:56 35.547284 -118.749522 80 41355ft 554kts
06-Sep-13 16:57 35.572916 -118.562308 80 41366ft 554kts
06-Sep-13 16:58 35.598115 -118.376234 81 41494ft 553kts
06-Sep-13 16:59 35.623127 -118.188847 80 41402ft 555kts
06-Sep-13 17:00 35.647818 -118.001424 80 41452ft 554kts
06-Sep-13 17:01 35.672194 -117.814251 81 41474ft 554kts
06-Sep-13 17:02 35.695831 -117.627457 81 41817ft 549kts
06-Sep-13 17:03 35.718338 -117.441019 81 41972ft 549kts
06-Sep-13 17:04 35.740549 -117.253074 82 41491ft 558kts
06-Sep-13 17:05 35.762733 -117.063102 84 40884ft 556kts
06-Sep-13 17:06 35.783900 -116.878102 81 40694ft 536kts
06-Sep-13 17:07 35.804200 -116.697762 80 40598ft 527kts
06-Sep-13 17:08 35.824130 -116.518623 80 38082ft 509kts
06-Sep-13 17:09 35.842750 -116.348736 79 35574ft 492kts
06-Sep-13 17:10 35.860867 -116.182264 79 33075ft 487kts
06-Sep-13 17:11 35.878648 -116.016936 79 30577ft 484kts
06-Sep-13 17:12 35.896108 -115.852314 79 28080ft 483kts
06-Sep-13 17:13 35.913316 -115.687788 80 25585ft 483kts
06-Sep-13 17:14 35.927489 -115.550498 80 23503ft 483kts
06-Sep-13 17:15 35.940975 -115.413787 79 20931ft 348kts
06-Sep-13 17:16 35.952733 -115.298124 79 18422ft 331kts
06-Sep-13 17:17 35.964296 -115.187368 75 15905ft 316kts
06-Sep-13 17:18 36.013516 -115.104289 42 13430ft 295kts
06-Sep-13 17:19 36.069602 -115.033475 42 10926ft 281kts
06-Sep-13 17:20 36.123435 -114.965976 42 8419ft 269kts
06-Sep-13 17:21 36.174960 -114.901050 42 5912ft 263kts
06-Sep-13 17:22 36.224453 -114.838552 42 5607ft 249kts
06-Sep-13 17:23 36.272446 -114.777822 42 5607ft 242kts
06-Sep-13 17:24 36.328466 -114.754521 331 5607ft 238kts
06-Sep-13 17:25 36.365488 -114.825785 301 5607ft 248kts
06-Sep-13 17:26 36.349727 -114.907480 230 5450ft 265kts
06-Sep-13 17:27 36.294548 -114.968657 224 3242ft 230kts
06-Sep-13 17:28 36.253212 -115.013475 227 2046ft 184kts
06-Sep-13 17:29 36.227700 -115.041370 221 1887ft 58kts
06-Sep-13 17:30 36.226588 -115.046655 312 1887ft 14kts
06-Sep-13 17:31 36.229546 -115.047745 52 1887ft 0kts
06-Sep-13 17:32 36.229547 -115.047744 52 1887ft 0kts

Navigation Log

Ident Type
Flight plan parsing failed, navigation log unavailable